Terminal Aerodrome Forecast
Issued by NWS

Home | Current Version | Previous Version | Text Only | Print | Product List | Glossary On
Versions: 1 2 3 4 5 6 7 8 9 10 11 12 13 14 15 16 17 18 19 20 21 22 23 24 25 26 27 28 29 30 31 32 33
000
FTUS44 KMAF 222200 AAB
TAFFST
TAF AMD
KFST 222227Z 2222/2318 11018G26KT P6SM SCT060 SCT200
     FM222300 15023KT P6SM BKN060
      TEMPO 2223/2303 5SM TSRA BKN050CB
     FM230900 18017KT P6SM BKN040 PROB30 2309/2314 5SM TSRA
      BKN040CB=

USA.gov is the U.S. government's official web portal to all federal, state and local government web resources and services.